Time;durP1;ratioP1;P1;durP2;ratioP2;P2;SDS_P1;SDS_P2;PMS_P1;PMS_P2;Temp;Humidity;BMP_temperature;BMP_pressure;BME280_temperature;BME280_humidity;BME280_pressure;Samples;Min_cycle;Max_cycle;Signal;HPM_P1;HPM_P2
2022/12/18 00:00:03;;;;;;;52.53;26.13;;;;;;;;;;4934846;29;20020;-94
2022/12/18 00:02:29;;;;;;;49.67;25.42;;;;;;;;;;4923691;29;20322;-95
2022/12/18 00:04:55;;;;;;;49.03;25.25;;;;;;;;;;4924155;29;20028;-96
2022/12/18 00:07:22;;;;;;;51.90;26.23;;;;;;;;;;4923147;29;20059;-93
2022/12/18 00:09:48;;;;;;;48.45;24.65;;;;;;;;;;4923993;29;20024;-95
2022/12/18 00:12:15;;;;;;;54.08;24.63;;;;;;;;;;4924630;29;20040;-95
2022/12/18 00:14:47;;;;;;;51.45;26.02;;;;;;;;;;4923207;29;20152;-94
2022/12/18 00:17:16;;;;;;;52.60;25.70;;;;;;;;;;4923917;29;20312;-94
2022/12/18 00:19:42;;;;;;;53.47;26.10;;;;;;;;;;4922837;29;20355;-94
2022/12/18 00:22:08;;;;;;;51.00;25.83;;;;;;;;;;4938073;29;20365;-94
2022/12/18 00:24:34;;;;;;;54.38;25.77;;;;;;;;;;4937670;29;20355;-96
2022/12/18 00:27:00;;;;;;;52.15;27.67;;;;;;;;;;4928796;29;20047;-95
2022/12/18 00:29:26;;;;;;;54.80;27.45;;;;;;;;;;4933947;29;20044;-95
2022/12/18 00:31:53;;;;;;;49.65;25.50;;;;;;;;;;4926860;29;20119;-95
2022/12/18 00:34:19;;;;;;;53.78;27.27;;;;;;;;;;4926595;29;20028;-95
2022/12/18 00:36:45;;;;;;;57.70;28.90;;;;;;;;;;4932060;29;20029;-95
2022/12/18 00:39:12;;;;;;;53.92;25.80;;;;;;;;;;4911208;29;20123;-96
2022/12/18 00:44:24;;;;;;;51.22;26.55;;;;;;;;;;4925781;29;20501;-94
2022/12/18 00:46:50;;;;;;;57.33;31.77;;;;;;;;;;4933060;29;20036;-94
2022/12/18 00:49:20;;;;;;;59.65;32.33;;;;;;;;;;4919328;29;20024;-93
2022/12/18 00:51:47;;;;;;;55.60;31.15;;;;;;;;;;4921226;29;20027;-95
2022/12/18 00:54:13;;;;;;;53.97;29.92;;;;;;;;;;4904709;29;20438;-94
2022/12/18 00:56:39;;;;;;;51.95;28.98;;;;;;;;;;4905015;29;20032;-94
2022/12/18 00:59:05;;;;;;;58.35;29.55;;;;;;;;;;4904670;29;20042;-94
2022/12/18 01:01:32;;;;;;;58.35;31.38;;;;;;;;;;4921587;29;20028;-94
2022/12/18 01:03:59;;;;;;;61.40;31.63;;;;;;;;;;4907212;29;20032;-94
2022/12/18 01:06:25;;;;;;;57.42;31.15;;;;;;;;;;4941094;29;20083;-93
2022/12/18 01:08:51;;;;;;;53.63;28.45;;;;;;;;;;4924159;29;20032;-94
2022/12/18 01:11:18;;;;;;;50.80;27.38;;;;;;;;;;4924231;29;20024;-95
2022/12/18 01:13:45;;;;;;;49.25;26.90;;;;;;;;;;4940671;29;20189;-94
2022/12/18 01:16:14;;;;;;;51.30;25.85;;;;;;;;;;4923655;29;20020;-94
2022/12/18 01:18:41;;;;;;;49.13;25.58;;;;;;;;;;4923449;29;20028;-94
2022/12/18 01:21:16;;;;;;;52.40;26.08;;;;;;;;;;4923079;29;20028;-94
2022/12/18 01:23:48;;;;;;;52.70;25.13;;;;;;;;;;4939836;29;20028;-93
2022/12/18 01:26:15;;;;;;;54.75;27.08;;;;;;;;;;4912549;29;20043;-94
2022/12/18 01:31:44;;;;;;;56.97;27.63;;;;;;;;;;4940245;29;20096;-94
2022/12/18 01:34:10;;;;;;;47.58;23.80;;;;;;;;;;4923229;29;20142;-95
2022/12/18 01:36:38;;;;;;;54.35;26.27;;;;;;;;;;4924300;29;20042;-93
2022/12/18 01:39:13;;;;;;;49.95;24.77;;;;;;;;;;4943787;29;20342;-95
2022/12/18 01:50:34;;;;;;;51.78;26.63;;;;;;;;;;4937101;29;20092;-94
2022/12/18 01:53:03;;;;;;;50.75;25.35;;;;;;;;;;4924713;29;20036;-94
2022/12/18 01:55:31;;;;;;;52.50;26.33;;;;;;;;;;4932280;29;20027;-95
2022/12/18 01:57:59;;;;;;;52.15;25.88;;;;;;;;;;4919562;29;20028;-94
2022/12/18 02:00:46;;;;;;;60.10;28.08;;;;;;;;;;4934709;29;20318;-94
2022/12/18 02:03:12;;;;;;;56.55;25.90;;;;;;;;;;4924250;29;20035;-95
2022/12/18 02:05:38;;;;;;;64.00;29.27;;;;;;;;;;4907598;29;20304;-95
2022/12/18 02:08:07;;;;;;;55.38;26.30;;;;;;;;;;4919694;29;20027;-96
2022/12/18 02:29:05;;;;;;;45.35;23.60;;;;;;;;;;4943294;29;20115;-95
2022/12/18 02:31:34;;;;;;;48.25;24.20;;;;;;;;;;4941939;29;20024;-96
2022/12/18 02:34:03;;;;;;;47.72;23.77;;;;;;;;;;4942613;29;20032;-95
2022/12/18 02:39:17;;;;;;;51.28;24.58;;;;;;;;;;4954574;29;20103;-95
2022/12/18 02:41:43;;;;;;;47.17;23.92;;;;;;;;;;4942860;29;20031;-95
2022/12/18 02:44:12;;;;;;;49.38;24.77;;;;;;;;;;4943456;29;20115;-96
2022/12/18 02:46:38;;;;;;;48.40;24.30;;;;;;;;;;4942765;29;20055;-94
2022/12/18 07:11:27;;;;;;;77.63;33.83;;;;;;;;;;1079820;23;21378;-94
2022/12/18 07:13:54;;;;;;;73.55;31.67;;;;;;;;;;4882229;29;20136;-95
2022/12/18 07:19:23;;;;;;;83.35;36.50;;;;;;;;;;4885092;29;20351;-94
2022/12/18 07:21:50;;;;;;;76.00;33.47;;;;;;;;;;4856996;29;20052;-95
2022/12/18 07:24:16;;;;;;;77.72;32.90;;;;;;;;;;4869059;29;20061;-95
2022/12/18 07:26:42;;;;;;;73.60;33.13;;;;;;;;;;4885657;29;20049;-94
2022/12/18 07:29:08;;;;;;;70.68;32.95;;;;;;;;;;4868625;29;20025;-94
2022/12/18 07:31:35;;;;;;;74.03;33.97;;;;;;;;;;4868668;29;20025;-95
2022/12/18 07:34:01;;;;;;;82.03;35.83;;;;;;;;;;4884532;29;20056;-94
2022/12/18 07:36:27;;;;;;;72.00;32.85;;;;;;;;;;4890268;29;20032;-95
2022/12/18 07:38:53;;;;;;;66.70;31.33;;;;;;;;;;4887128;29;20407;-94
2022/12/18 07:52:37;;;;;;;70.57;31.88;;;;;;;;;;4904139;29;20044;-93
2022/12/18 07:57:48;;;;;;;72.10;32.42;;;;;;;;;;4903514;29;20052;-94
2022/12/18 08:00:14;;;;;;;72.60;33.70;;;;;;;;;;4903019;29;20349;-95
2022/12/18 08:02:40;;;;;;;84.35;35.50;;;;;;;;;;4886415;29;20067;-96
2022/12/18 08:05:07;;;;;;;74.55;32.17;;;;;;;;;;4889143;29;20037;-94
2022/12/18 08:07:33;;;;;;;72.10;32.60;;;;;;;;;;4884595;29;20044;-94
2022/12/18 08:09:59;;;;;;;75.60;32.80;;;;;;;;;;4884584;29;20032;-95
2022/12/18 08:12:25;;;;;;;70.63;31.52;;;;;;;;;;4884273;29;20093;-94
2022/12/18 08:14:51;;;;;;;74.20;31.75;;;;;;;;;;4867414;29;20373;-94
2022/12/18 08:17:17;;;;;;;98.68;41.92;;;;;;;;;;4884320;29;20021;-93
2022/12/18 08:19:43;;;;;;;80.32;36.30;;;;;;;;;;4884151;29;20048;-95
2022/12/18 08:22:09;;;;;;;83.93;38.90;;;;;;;;;;4883572;29;20044;-94
2022/12/18 08:24:35;;;;;;;81.70;37.60;;;;;;;;;;4884368;29;20108;-95
2022/12/18 08:27:01;;;;;;;72.97;33.05;;;;;;;;;;4868047;29;20029;-87
2022/12/18 08:29:27;;;;;;;70.78;33.00;;;;;;;;;;4874936;29;20045;-83
2022/12/18 08:31:53;;;;;;;69.22;32.28;;;;;;;;;;4883606;29;20107;-83
2022/12/18 08:34:19;;;;;;;82.70;34.22;;;;;;;;;;4864037;29;20045;-87
2022/12/18 08:36:45;;;;;;;73.18;35.15;;;;;;;;;;4879416;29;20396;-85
2022/12/18 08:39:11;;;;;;;75.03;35.42;;;;;;;;;;4883614;29;20103;-85
2022/12/18 08:41:37;;;;;;;76.40;34.25;;;;;;;;;;4883889;29;20045;-84
2022/12/18 08:46:48;;;;;;;73.65;33.63;;;;;;;;;;4883816;29;20091;-85
2022/12/18 08:49:14;;;;;;;70.95;34.30;;;;;;;;;;4883697;29;20397;-85
2022/12/18 08:51:40;;;;;;;81.00;38.80;;;;;;;;;;4883668;29;20033;-85
2022/12/18 08:54:07;;;;;;;76.38;34.05;;;;;;;;;;4883449;29;20050;-85
2022/12/18 08:56:33;;;;;;;84.75;38.97;;;;;;;;;;4883754;29;20025;-85
2022/12/18 08:59:00;;;;;;;97.00;39.13;;;;;;;;;;4867140;29;20029;-84
2022/12/18 09:01:26;;;;;;;117.07;53.60;;;;;;;;;;4883570;29;20036;-81
2022/12/18 09:03:52;;;;;;;104.28;37.28;;;;;;;;;;4883500;29;20081;-83
2022/12/18 09:06:19;;;;;;;77.25;34.90;;;;;;;;;;4882583;29;20308;-84
2022/12/18 09:08:45;;;;;;;83.60;37.03;;;;;;;;;;4866431;29;20029;-83
2022/12/18 09:11:21;;;;;;;116.03;47.92;;;;;;;;;;4866743;29;20043;-85
2022/12/18 09:13:48;;;;;;;196.57;74.32;;;;;;;;;;4883251;29;20057;-83
2022/12/18 09:16:14;;;;;;;85.13;37.05;;;;;;;;;;4883399;29;20029;-83
2022/12/18 09:18:40;;;;;;;105.30;44.85;;;;;;;;;;4866569;29;20124;-82
2022/12/18 09:21:24;;;;;;;372.83;140.98;;;;;;;;;;4866741;29;20381;-83
2022/12/18 09:23:51;;;;;;;138.27;53.63;;;;;;;;;;4883437;29;20036;-84
2022/12/18 09:26:17;;;;;;;107.53;43.58;;;;;;;;;;4882870;29;20033;-84
2022/12/18 09:28:43;;;;;;;88.68;39.35;;;;;;;;;;4882890;29;20112;-82
2022/12/18 09:31:09;;;;;;;130.43;50.10;;;;;;;;;;4883164;29;20361;-82
2022/12/18 09:33:36;;;;;;;163.15;56.58;;;;;;;;;;4883271;29;20365;-85
2022/12/18 09:36:03;;;;;;;285.77;100.47;;;;;;;;;;4883160;29;20025;-83
2022/12/18 09:38:29;;;;;;;328.23;127.50;;;;;;;;;;4882971;29;20025;-84
2022/12/18 09:41:00;;;;;;;112.97;45.28;;;;;;;;;;4862785;29;20025;-84
2022/12/18 09:43:26;;;;;;;161.90;64.40;;;;;;;;;;4866343;29;20037;-84
2022/12/18 09:45:55;;;;;;;155.65;54.33;;;;;;;;;;4866480;29;20325;-84
2022/12/18 09:48:24;;;;;;;147.73;56.55;;;;;;;;;;4882939;29;20033;-84
2022/12/18 09:50:50;;;;;;;179.82;70.40;;;;;;;;;;4883260;29;20037;-82
2022/12/18 09:53:20;;;;;;;168.13;62.40;;;;;;;;;;4882841;29;20029;-85
2022/12/18 09:55:47;;;;;;;98.07;43.00;;;;;;;;;;4882933;29;20112;-84
2022/12/18 09:58:13;;;;;;;214.38;82.32;;;;;;;;;;4885109;29;20029;-83
2022/12/18 10:00:41;;;;;;;162.73;63.20;;;;;;;;;;4869781;29;20037;-84
2022/12/18 10:03:13;;;;;;;96.28;42.78;;;;;;;;;;4869632;29;20089;-81
2022/12/18 10:05:49;;;;;;;117.40;50.78;;;;;;;;;;4886160;29;20426;-79
2022/12/18 10:08:26;;;;;;;94.85;40.15;;;;;;;;;;4885851;29;20037;-81
2022/12/18 10:13:55;;;;;;;145.07;56.53;;;;;;;;;;4886510;29;20064;-89
2022/12/18 10:22:53;;;;;;;112.40;45.88;;;;;;;;;;4898568;29;20071;-89
2022/12/18 10:28:23;;;;;;;255.57;99.20;;;;;;;;;;4886391;29;20439;-89
2022/12/18 10:30:49;;;;;;;102.82;45.20;;;;;;;;;;4885908;29;20475;-90
2022/12/18 10:33:17;;;;;;;96.15;42.08;;;;;;;;;;4869528;29;20090;-89
2022/12/18 10:35:44;;;;;;;119.88;48.58;;;;;;;;;;4885459;29;20033;-90
2022/12/18 10:38:19;;;;;;;276.13;113.20;;;;;;;;;;4885776;29;20108;-89
2022/12/18 10:40:53;;;;;;;282.75;119.38;;;;;;;;;;4898221;29;20071;-91
2022/12/18 10:43:38;;;;;;;123.80;50.58;;;;;;;;;;4905128;29;20029;-90
2022/12/18 10:46:05;;;;;;;123.80;53.78;;;;;;;;;;4904612;29;20021;-89
2022/12/18 10:48:32;;;;;;;159.85;67.10;;;;;;;;;;4874918;29;20312;-90
2022/12/18 10:50:58;;;;;;;116.47;48.05;;;;;;;;;;4904310;29;20048;-89
2022/12/18 10:53:28;;;;;;;97.55;41.97;;;;;;;;;;4888008;29;20032;-90
2022/12/18 10:55:56;;;;;;;112.38;48.60;;;;;;;;;;4887569;29;20113;-89
2022/12/18 10:58:26;;;;;;;123.07;54.03;;;;;;;;;;4885726;29;20060;-91
2022/12/18 11:01:16;;;;;;;122.80;53.30;;;;;;;;;;4884514;29;20109;-90
2022/12/18 11:03:43;;;;;;;214.27;90.70;;;;;;;;;;4810135;29;20043;-89
2022/12/18 11:06:09;;;;;;;187.50;80.22;;;;;;;;;;4820886;29;20034;-89
2022/12/18 11:08:36;;;;;;;193.23;81.95;;;;;;;;;;4842178;29;20445;-89
2022/12/18 11:11:02;;;;;;;110.25;47.47;;;;;;;;;;4833227;29;20060;-90
2022/12/18 11:13:30;;;;;;;122.38;53.35;;;;;;;;;;4828285;29;20059;-89
2022/12/18 11:15:56;;;;;;;96.32;43.33;;;;;;;;;;4812763;29;20046;-89
2022/12/18 11:18:34;;;;;;;99.70;43.33;;;;;;;;;;4828357;29;20037;-90
2022/12/18 11:21:07;;;;;;;140.90;57.17;;;;;;;;;;4828373;29;20533;-90
2022/12/18 11:23:34;;;;;;;128.70;55.75;;;;;;;;;;4828394;29;20030;-90
2022/12/18 11:26:02;;;;;;;207.18;80.25;;;;;;;;;;4827892;29;20058;-89
2022/12/18 11:28:48;;;;;;;111.03;48.08;;;;;;;;;;4828159;29;20049;-89
2022/12/18 11:31:19;;;;;;;113.40;46.83;;;;;;;;;;4774096;30;20042;-89
2022/12/18 11:33:48;;;;;;;118.55;49.67;;;;;;;;;;4769430;30;20046;-89
2022/12/18 11:36:15;;;;;;;137.18;57.85;;;;;;;;;;4759233;30;20443;-89
2022/12/18 11:38:42;;;;;;;426.15;187.10;;;;;;;;;;4774048;30;20032;-89
2022/12/18 11:41:14;;;;;;;153.40;62.70;;;;;;;;;;4796591;29;20038;-90
2022/12/18 11:43:50;;;;;;;196.10;82.13;;;;;;;;;;4814193;29;20046;-89
2022/12/18 11:46:25;;;;;;;258.42;107.70;;;;;;;;;;4812527;29;20447;-88
2022/12/18 11:49:11;;;;;;;102.80;43.75;;;;;;;;;;4828173;29;20042;-89
2022/12/18 11:51:52;;;;;;;663.10;320.23;;;;;;;;;;4827615;29;20417;-89
2022/12/18 11:54:18;;;;;;;313.63;132.45;;;;;;;;;;4827893;29;20043;-88
2022/12/18 11:56:48;;;;;;;113.03;49.90;;;;;;;;;;4827959;29;20041;-89
2022/12/18 11:59:38;;;;;;;261.75;113.95;;;;;;;;;;4812553;29;20038;-89
2022/12/18 12:08:14;;;;;;;100.13;45.25;;;;;;;;;;4835016;29;20063;-89
2022/12/18 12:10:49;;;;;;;100.75;43.42;;;;;;;;;;4867365;29;20030;-89
2022/12/18 12:13:18;;;;;;;99.72;42.92;;;;;;;;;;4883973;29;20044;-89
2022/12/18 12:15:51;;;;;;;125.53;53.50;;;;;;;;;;4884140;29;20033;-89
2022/12/18 12:18:17;;;;;;;97.70;41.53;;;;;;;;;;4884117;29;20076;-89
2022/12/18 12:20:48;;;;;;;110.15;48.00;;;;;;;;;;4883480;29;20302;-89
2022/12/18 12:23:20;;;;;;;101.25;44.25;;;;;;;;;;4884197;29;20400;-89
2022/12/18 12:25:52;;;;;;;92.88;41.65;;;;;;;;;;4869591;29;20029;-88
2022/12/18 12:28:24;;;;;;;101.22;44.28;;;;;;;;;;4849374;29;20037;-89
2022/12/18 12:31:14;;;;;;;121.07;48.95;;;;;;;;;;4849278;29;20029;-90
2022/12/18 12:33:55;;;;;;;432.30;183.38;;;;;;;;;;4796918;29;20045;-89
2022/12/18 12:36:27;;;;;;;137.95;57.60;;;;;;;;;;4808933;29;20134;-90
2022/12/18 12:38:57;;;;;;;121.43;52.78;;;;;;;;;;4809043;29;20046;-90
2022/12/18 12:44:14;;;;;;;185.43;78.35;;;;;;;;;;4808433;29;20072;-81
2022/12/18 12:46:42;;;;;;;125.13;52.30;;;;;;;;;;4792612;29;20152;-80
2022/12/18 12:49:16;;;;;;;115.22;48.88;;;;;;;;;;4808146;29;20038;-81
2022/12/18 12:51:43;;;;;;;193.65;83.72;;;;;;;;;;4808337;29;20046;-82
2022/12/18 12:54:17;;;;;;;164.00;71.60;;;;;;;;;;4808077;29;20125;-82
2022/12/18 12:56:58;;;;;;;116.55;49.83;;;;;;;;;;4807991;29;20027;-81
2022/12/18 12:59:24;;;;;;;117.25;52.05;;;;;;;;;;4792737;29;20333;-81
2022/12/18 13:01:57;;;;;;;206.10;90.50;;;;;;;;;;4807984;29;20113;-82
2022/12/18 13:04:33;;;;;;;301.80;122.63;;;;;;;;;;4808040;29;20085;-82
2022/12/18 13:07:05;;;;;;;117.65;48.15;;;;;;;;;;4792167;29;20035;-82
2022/12/18 13:09:32;;;;;;;110.13;48.22;;;;;;;;;;4810487;29;20034;-81
2022/12/18 13:14:47;;;;;;;124.72;52.97;;;;;;;;;;4864741;29;20090;-81
2022/12/18 13:17:19;;;;;;;144.40;63.05;;;;;;;;;;4874944;29;20029;-81
2022/12/18 13:19:49;;;;;;;113.43;50.40;;;;;;;;;;4882818;29;20029;-81
2022/12/18 13:22:23;;;;;;;115.40;50.20;;;;;;;;;;4883128;29;20404;-81
2022/12/18 13:24:50;;;;;;;120.65;49.40;;;;;;;;;;4882920;29;20420;-81
2022/12/18 13:27:34;;;;;;;112.40;48.10;;;;;;;;;;4883107;29;20029;-80
2022/12/18 13:30:00;;;;;;;123.95;53.80;;;;;;;;;;4866584;29;20041;-81
2022/12/18 13:32:27;;;;;;;106.13;47.78;;;;;;;;;;4883764;29;20085;-80
2022/12/18 13:35:28;;;;;;;106.95;48.28;;;;;;;;;;4870051;29;20431;-81
2022/12/18 13:37:55;;;;;;;137.35;58.88;;;;;;;;;;4847610;29;20113;-80
2022/12/18 13:40:44;;;;;;;105.53;47.13;;;;;;;;;;4847720;29;20109;-80
2022/12/18 13:43:19;;;;;;;174.55;69.53;;;;;;;;;;4810722;29;20442;-81
2022/12/18 13:45:50;;;;;;;169.98;66.93;;;;;;;;;;4811064;29;20054;-81
2022/12/18 13:48:18;;;;;;;102.40;46.45;;;;;;;;;;4811243;29;20042;-83
2022/12/18 13:50:48;;;;;;;97.80;45.13;;;;;;;;;;4811116;29;20035;-79
2022/12/18 13:53:21;;;;;;;156.63;65.40;;;;;;;;;;4811129;29;20144;-82
2022/12/18 13:55:47;;;;;;;257.95;102.57;;;;;;;;;;4810954;29;20487;-80
2022/12/18 13:58:13;;;;;;;116.30;51.28;;;;;;;;;;4795821;29;20031;-82
2022/12/18 14:00:42;;;;;;;641.65;303.30;;;;;;;;;;4795504;29;20686;-81
2022/12/18 14:03:35;;;;;;;127.97;55.42;;;;;;;;;;4810941;29;20115;-80
2022/12/18 14:06:08;;;;;;;512.13;226.27;;;;;;;;;;4809275;29;20381;-81
2022/12/18 14:08:37;;;;;;;487.52;212.32;;;;;;;;;;4810674;29;20109;-81
2022/12/18 14:11:04;;;;;;;177.88;75.18;;;;;;;;;;4807296;29;20039;-81
2022/12/18 14:13:34;;;;;;;149.65;64.80;;;;;;;;;;4792616;30;20078;-82
2022/12/18 14:16:04;;;;;;;371.77;162.90;;;;;;;;;;4792687;30;20114;-82
2022/12/18 14:18:44;;;;;;;117.45;53.63;;;;;;;;;;4792895;30;20106;-82
2022/12/18 14:21:18;;;;;;;216.65;95.22;;;;;;;;;;4879492;29;20033;-81
2022/12/18 14:23:44;;;;;;;135.35;61.05;;;;;;;;;;4869601;29;20021;-89
2022/12/18 14:26:33;;;;;;;141.25;64.60;;;;;;;;;;4886177;29;20053;-89
2022/12/18 14:29:01;;;;;;;113.57;51.85;;;;;;;;;;4886203;29;20036;-90
2022/12/18 14:31:28;;;;;;;119.40;50.65;;;;;;;;;;4886425;29;20032;-90
2022/12/18 14:33:55;;;;;;;116.68;51.38;;;;;;;;;;4886338;29;20033;-90
2022/12/18 14:36:23;;;;;;;549.65;228.43;;;;;;;;;;4886432;29;20033;-91
2022/12/18 14:38:53;;;;;;;297.02;121.82;;;;;;;;;;4886178;29;20032;-89
2022/12/18 14:41:20;;;;;;;171.80;76.13;;;;;;;;;;4885857;29;20424;-89
2022/12/18 14:43:55;;;;;;;135.10;60.78;;;;;;;;;;4869323;29;20033;-90
2022/12/18 14:46:27;;;;;;;286.17;128.63;;;;;;;;;;4885967;29;20017;-90
2022/12/18 14:48:54;;;;;;;119.85;55.08;;;;;;;;;;4886206;29;20041;-89
2022/12/18 14:51:20;;;;;;;117.32;51.45;;;;;;;;;;4869360;29;20128;-90
2022/12/18 14:53:47;;;;;;;100.35;47.70;;;;;;;;;;4869490;29;20059;-90
2022/12/18 14:56:15;;;;;;;163.38;73.70;;;;;;;;;;4886079;29;20025;-90
2022/12/18 14:58:45;;;;;;;158.30;64.72;;;;;;;;;;4885716;29;20025;-90
2022/12/18 15:01:18;;;;;;;113.38;52.42;;;;;;;;;;4868965;29;20037;-90
2022/12/18 15:03:44;;;;;;;307.73;128.88;;;;;;;;;;4886149;29;20045;-90
2022/12/18 15:06:27;;;;;;;129.00;54.72;;;;;;;;;;4869342;29;20032;-89
2022/12/18 15:08:53;;;;;;;137.98;63.55;;;;;;;;;;4885984;29;20077;-89
2022/12/18 15:11:26;;;;;;;129.98;56.83;;;;;;;;;;4885540;29;20060;-89
2022/12/18 15:13:52;;;;;;;251.20;113.28;;;;;;;;;;4868876;29;20072;-89
2022/12/18 15:19:23;;;;;;;143.55;63.45;;;;;;;;;;4885663;29;20060;-89
2022/12/18 15:21:49;;;;;;;322.67;141.18;;;;;;;;;;4885363;29;20025;-89
2022/12/18 15:24:19;;;;;;;152.77;66.45;;;;;;;;;;4885636;29;20033;-89
2022/12/18 15:26:45;;;;;;;147.02;66.63;;;;;;;;;;4868853;29;20039;-89
2022/12/18 15:29:25;;;;;;;128.77;60.60;;;;;;;;;;4885118;29;20029;-88
2022/12/18 15:37:58;;;;;;;126.13;54.00;;;;;;;;;;4885302;29;20080;-89
2022/12/18 15:40:24;;;;;;;119.30;51.90;;;;;;;;;;4868615;29;20025;-90
2022/12/18 15:45:57;;;;;;;149.88;63.60;;;;;;;;;;4846463;29;20041;-90
2022/12/18 15:51:32;;;;;;;140.93;61.40;;;;;;;;;;4846370;29;20063;-89
2022/12/18 15:53:59;;;;;;;151.23;63.90;;;;;;;;;;4846280;29;20041;-89
2022/12/18 15:59:12;;;;;;;164.68;65.50;;;;;;;;;;4846235;29;20044;-89
2022/12/18 16:01:38;;;;;;;191.70;78.35;;;;;;;;;;4830525;29;20030;-91
2022/12/18 16:04:04;;;;;;;150.57;63.25;;;;;;;;;;4846054;29;20041;-89
2022/12/18 16:06:30;;;;;;;122.30;52.17;;;;;;;;;;4846131;29;20430;-90
2022/12/18 16:08:56;;;;;;;125.57;52.00;;;;;;;;;;4845951;29;20406;-88
2022/12/18 16:11:38;;;;;;;124.93;55.38;;;;;;;;;;4830646;29;20074;-90
2022/12/18 16:14:04;;;;;;;138.35;63.47;;;;;;;;;;4830455;29;20104;-90
2022/12/18 16:17:08;;;;;;;139.68;61.00;;;;;;;;;;4862145;29;20029;-89
2022/12/18 16:19:34;;;;;;;181.70;68.43;;;;;;;;;;4884467;29;20064;-90
2022/12/18 16:22:03;;;;;;;209.30;77.40;;;;;;;;;;4884279;29;20130;-88
2022/12/18 16:24:30;;;;;;;208.45;77.32;;;;;;;;;;4867890;29;20416;-91
2022/12/18 16:26:59;;;;;;;161.60;65.43;;;;;;;;;;4867881;29;20104;-93
2022/12/18 16:29:27;;;;;;;149.55;65.07;;;;;;;;;;4884356;29;20029;-93
2022/12/18 16:32:13;;;;;;;224.90;81.45;;;;;;;;;;4867734;29;20029;-92
2022/12/18 16:34:39;;;;;;;295.05;105.80;;;;;;;;;;4867681;29;20119;-93
2022/12/18 16:37:06;;;;;;;334.58;110.70;;;;;;;;;;4867800;29;20108;-91
2022/12/18 16:39:34;;;;;;;232.82;91.32;;;;;;;;;;4867697;29;20025;-92
2022/12/18 16:42:00;;;;;;;248.90;101.80;;;;;;;;;;4884246;29;20029;-93
2022/12/18 16:44:26;;;;;;;219.85;97.00;;;;;;;;;;4867887;29;20037;-93
2022/12/18 16:46:52;;;;;;;208.50;91.78;;;;;;;;;;4867481;29;20068;-93
2022/12/18 16:49:19;;;;;;;204.50;87.25;;;;;;;;;;4883893;29;20078;-93
2022/12/18 16:51:48;;;;;;;236.88;104.47;;;;;;;;;;4867518;29;20036;-93
2022/12/18 16:54:14;;;;;;;274.77;118.72;;;;;;;;;;4883766;29;20029;-91
2022/12/18 16:56:41;;;;;;;276.23;121.00;;;;;;;;;;4883777;29;20117;-93
2022/12/18 16:59:09;;;;;;;234.05;102.22;;;;;;;;;;4867400;29;20025;-92
2022/12/18 17:04:39;;;;;;;201.18;93.93;;;;;;;;;;4884075;29;20036;-91
2022/12/18 17:07:05;;;;;;;191.77;90.40;;;;;;;;;;4870715;29;20025;-93
2022/12/18 17:09:31;;;;;;;181.25;83.45;;;;;;;;;;4873632;29;20079;-93
2022/12/18 17:11:57;;;;;;;157.85;72.55;;;;;;;;;;4889708;29;20117;-93
2022/12/18 17:14:23;;;;;;;156.23;71.47;;;;;;;;;;4873431;29;20040;-94
2022/12/18 17:19:53;;;;;;;209.65;86.55;;;;;;;;;;4890184;29;20069;-93
2022/12/18 17:22:22;;;;;;;241.63;95.55;;;;;;;;;;4890278;29;20068;-94
2022/12/18 17:24:48;;;;;;;306.67;107.80;;;;;;;;;;4889816;29;20033;-95
2022/12/18 17:27:14;;;;;;;428.10;137.27;;;;;;;;;;4890119;29;20073;-93
2022/12/18 17:29:40;;;;;;;401.10;127.82;;;;;;;;;;4889493;29;20119;-92
2022/12/18 17:32:06;;;;;;;276.77;91.97;;;;;;;;;;4889697;29;20033;-92
2022/12/18 17:34:32;;;;;;;379.25;122.60;;;;;;;;;;4888544;29;20044;-93
2022/12/18 17:36:58;;;;;;;245.35;92.05;;;;;;;;;;4889740;29;20029;-94
2022/12/18 17:39:24;;;;;;;231.82;90.82;;;;;;;;;;4888709;29;20076;-93
2022/12/18 17:41:50;;;;;;;252.85;96.50;;;;;;;;;;4889574;29;20040;-93
2022/12/18 17:44:17;;;;;;;292.35;111.38;;;;;;;;;;4889686;29;20044;-94
2022/12/18 17:46:43;;;;;;;187.15;82.47;;;;;;;;;;4888438;29;20063;-93
2022/12/18 17:49:09;;;;;;;175.55;73.35;;;;;;;;;;4889435;29;20033;-93
2022/12/18 17:51:35;;;;;;;188.63;76.28;;;;;;;;;;4889560;29;20025;-93
2022/12/18 17:54:02;;;;;;;146.35;63.35;;;;;;;;;;4888501;29;20037;-93
2022/12/18 17:56:28;;;;;;;152.63;67.55;;;;;;;;;;4889797;29;20025;-92
2022/12/18 17:58:54;;;;;;;136.48;59.00;;;;;;;;;;4889713;29;20324;-92
2022/12/18 18:01:22;;;;;;;125.05;56.13;;;;;;;;;;4889386;29;20408;-92
2022/12/18 18:03:48;;;;;;;117.53;55.70;;;;;;;;;;4889459;29;20022;-92
2022/12/18 18:06:14;;;;;;;109.72;52.50;;;;;;;;;;4889726;29;20028;-93
2022/12/18 18:08:40;;;;;;;157.95;66.35;;;;;;;;;;4888487;29;20053;-92
2022/12/18 18:14:03;;;;;;;157.48;75.82;;;;;;;;;;4904783;29;20359;-93
2022/12/18 18:16:32;;;;;;;153.85;80.72;;;;;;;;;;4891335;29;20404;-91
2022/12/18 18:19:03;;;;;;;275.05;132.63;;;;;;;;;;4905174;29;20112;-93
2022/12/18 18:21:29;;;;;;;186.10;87.93;;;;;;;;;;4905123;29;20051;-93
2022/12/18 18:23:58;;;;;;;166.48;75.28;;;;;;;;;;4905344;29;20024;-92
2022/12/18 18:26:28;;;;;;;165.10;72.78;;;;;;;;;;4888014;29;20037;-90
2022/12/18 18:28:54;;;;;;;227.35;96.28;;;;;;;;;;4894067;29;20045;-92
2022/12/18 18:31:20;;;;;;;176.77;77.85;;;;;;;;;;4870020;29;20455;-93
2022/12/18 18:33:46;;;;;;;196.82;84.45;;;;;;;;;;4871813;29;20024;-93
2022/12/18 18:36:12;;;;;;;287.52;110.10;;;;;;;;;;4894553;29;20484;-92
2022/12/18 18:38:38;;;;;;;242.07;99.32;;;;;;;;;;4898725;29;20036;-92
2022/12/18 18:41:05;;;;;;;249.32;108.25;;;;;;;;;;4868809;29;20037;-92
2022/12/18 18:43:31;;;;;;;255.10;107.03;;;;;;;;;;4869769;29;20041;-93
2022/12/18 18:45:57;;;;;;;255.63;106.55;;;;;;;;;;4869556;29;20033;-93
2022/12/18 18:48:24;;;;;;;279.25;111.97;;;;;;;;;;4869967;29;20080;-91
2022/12/18 18:51:04;;;;;;;261.73;113.70;;;;;;;;;;4869462;29;20037;-92
2022/12/18 18:53:30;;;;;;;290.45;126.00;;;;;;;;;;4869482;29;20082;-94
2022/12/18 18:55:59;;;;;;;509.48;207.82;;;;;;;;;;4885026;29;20025;-93
2022/12/18 18:58:26;;;;;;;394.35;166.20;;;;;;;;;;4869077;29;20073;-93
2022/12/18 19:00:56;;;;;;;193.65;97.85;;;;;;;;;;4866565;29;20017;-93
2022/12/18 19:03:23;;;;;;;612.58;260.38;;;;;;;;;;4869356;29;20029;-93
2022/12/18 19:05:59;;;;;;;245.38;98.78;;;;;;;;;;4869077;29;20037;-92
2022/12/18 19:08:27;;;;;;;235.05;89.07;;;;;;;;;;4868701;29;20037;-92
2022/12/18 19:10:54;;;;;;;138.10;60.30;;;;;;;;;;4885397;29;20040;-94
2022/12/18 19:13:23;;;;;;;164.52;69.93;;;;;;;;;;4868905;29;20049;-93
2022/12/18 19:15:49;;;;;;;360.38;145.75;;;;;;;;;;4885358;29;20025;-92
2022/12/18 19:18:15;;;;;;;170.73;73.05;;;;;;;;;;4885556;29;20025;-92
2022/12/18 19:20:41;;;;;;;242.15;99.88;;;;;;;;;;4885498;29;20025;-91
2022/12/18 19:23:07;;;;;;;237.75;99.93;;;;;;;;;;4885127;29;20036;-91
2022/12/18 19:25:36;;;;;;;143.35;65.20;;;;;;;;;;4884438;29;20435;-92
2022/12/18 19:28:03;;;;;;;135.18;60.90;;;;;;;;;;4885429;29;20033;-92
2022/12/18 19:30:29;;;;;;;125.18;57.03;;;;;;;;;;4883064;29;20460;-92
2022/12/18 19:32:55;;;;;;;309.88;130.00;;;;;;;;;;4885394;29;20033;-93
2022/12/18 19:35:21;;;;;;;161.70;72.82;;;;;;;;;;4884831;29;20029;-91
2022/12/18 19:37:47;;;;;;;175.10;80.18;;;;;;;;;;4883586;29;20041;-92
2022/12/18 19:40:13;;;;;;;233.45;102.53;;;;;;;;;;4883911;29;20029;-91
2022/12/18 19:42:39;;;;;;;160.50;70.95;;;;;;;;;;4884530;29;20131;-92
2022/12/18 19:45:05;;;;;;;128.75;64.70;;;;;;;;;;4884944;29;20029;-92
2022/12/18 19:47:31;;;;;;;196.52;89.57;;;;;;;;;;4883729;29;20128;-91
2022/12/18 19:49:57;;;;;;;168.93;80.03;;;;;;;;;;4884772;29;20068;-90
2022/12/18 19:52:23;;;;;;;325.88;119.97;;;;;;;;;;4884453;29;20053;-91
2022/12/18 19:54:49;;;;;;;260.55;107.93;;;;;;;;;;4884902;29;20032;-91
2022/12/18 19:57:15;;;;;;;468.02;188.80;;;;;;;;;;4886027;29;20025;-90
2022/12/18 19:59:41;;;;;;;433.25;179.98;;;;;;;;;;4903439;29;20025;-90
2022/12/18 20:02:12;;;;;;;224.10;108.63;;;;;;;;;;4903180;29;20040;-91
2022/12/18 20:04:38;;;;;;;214.05;101.22;;;;;;;;;;4902161;29;20082;-90
2022/12/18 20:07:04;;;;;;;207.68;97.32;;;;;;;;;;4902698;29;20075;-90
2022/12/18 20:09:30;;;;;;;218.23;97.28;;;;;;;;;;4869588;29;20061;-91
2022/12/18 20:11:57;;;;;;;166.45;77.95;;;;;;;;;;4902919;29;20032;-90
2022/12/18 20:14:23;;;;;;;168.85;77.50;;;;;;;;;;4903058;29;20154;-91
2022/12/18 20:16:49;;;;;;;158.13;72.18;;;;;;;;;;4902214;29;20064;-90
2022/12/18 20:19:15;;;;;;;129.02;58.22;;;;;;;;;;4903175;29;20032;-90
2022/12/18 20:21:41;;;;;;;133.70;61.97;;;;;;;;;;4902162;29;20028;-90
2022/12/18 20:24:07;;;;;;;126.25;58.20;;;;;;;;;;4901702;29;20033;-90